createdAt,value
2017-05-23T00:01:35.165Z,14.20
2017-05-23T00:04:04.162Z,14.10
2017-05-23T00:06:33.953Z,13.90
2017-05-23T00:09:03.858Z,13.90
2017-05-23T00:11:33.712Z,13.80
2017-05-23T00:14:03.807Z,13.80
2017-05-23T00:16:33.585Z,13.70
2017-05-23T00:19:03.329Z,13.60
2017-05-23T00:22:51.453Z,13.60
2017-05-23T00:25:20.424Z,13.50
2017-05-23T00:27:50.267Z,13.30
2017-05-23T00:30:20.114Z,13.30
2017-05-23T00:32:49.846Z,13.30
2017-05-23T00:35:18.816Z,13.20
2017-05-23T00:37:48.549Z,13.30
2017-05-23T00:40:17.518Z,13.20
2017-05-23T00:42:47.302Z,13.10
2017-05-23T00:45:17.061Z,13.00
2017-05-23T00:47:46.786Z,13.00
2017-05-23T00:50:16.545Z,13.00
2017-05-23T00:52:46.475Z,13.00
2017-05-23T00:55:16.210Z,12.90
2017-05-23T00:57:45.197Z,12.90
2017-05-23T01:00:14.184Z,13.00
2017-05-23T01:02:43.955Z,12.90
2017-05-23T01:05:13.718Z,12.80
2017-05-23T01:07:43.467Z,12.70
2017-05-23T01:10:13.216Z,12.70
2017-05-23T01:12:42.150Z,12.60
2017-05-23T01:15:11.901Z,12.60
2017-05-23T01:17:40.880Z,12.50
2017-05-23T01:20:10.646Z,12.60
2017-05-23T01:22:40.418Z,12.50
2017-05-23T01:25:10.183Z,12.40
2017-05-23T01:27:39.930Z,12.40
2017-05-23T01:30:09.875Z,12.40
2017-05-23T01:32:39.657Z,12.40
2017-05-23T01:35:09.544Z,12.30
2017-05-23T01:37:39.646Z,12.30
2017-05-23T01:40:09.393Z,12.40
2017-05-23T01:42:39.121Z,12.50
2017-05-23T01:45:08.905Z,12.50
2017-05-23T01:47:38.722Z,12.40
2017-05-23T01:50:08.490Z,12.40
2017-05-23T01:52:38.249Z,12.30
2017-05-23T01:55:08.042Z,12.40
2017-05-23T01:57:38.131Z,12.30
2017-05-23T02:00:08.192Z,12.30
2017-05-23T02:02:37.962Z,12.30
2017-05-23T02:05:07.736Z,12.30
2017-05-23T02:07:37.521Z,12.30
2017-05-23T02:10:06.538Z,12.30
2017-05-23T02:12:36.242Z,12.30
2017-05-23T02:15:05.967Z,12.40
2017-05-23T02:17:35.685Z,12.40
2017-05-23T02:20:04.687Z,12.30
2017-05-23T02:22:34.503Z,12.40
2017-05-23T02:25:04.229Z,12.40
2017-05-23T02:27:34.014Z,12.40
2017-05-23T02:30:03.004Z,12.30
2017-05-23T02:32:32.737Z,12.40
2017-05-23T02:35:02.549Z,12.40
2017-05-23T02:37:32.288Z,12.30
2017-05-23T02:40:02.021Z,12.30
2017-05-23T02:42:31.872Z,12.30
2017-05-23T02:45:01.677Z,12.30
2017-05-23T02:47:31.409Z,12.30
2017-05-23T02:50:01.133Z,12.30
2017-05-23T02:52:30.886Z,12.30
2017-05-23T02:54:59.869Z,12.20
2017-05-23T02:57:29.640Z,12.40
2017-05-23T02:59:59.770Z,12.40
2017-05-23T03:02:28.716Z,12.40
2017-05-23T03:04:58.444Z,12.40
2017-05-23T03:07:28.197Z,12.40
2017-05-23T03:09:58.035Z,12.40
2017-05-23T03:12:26.991Z,12.40
2017-05-23T03:14:56.721Z,12.30
2017-05-23T03:17:25.674Z,12.20
2017-05-23T03:19:55.370Z,12.20
2017-05-23T03:22:25.142Z,12.20
2017-05-23T03:24:54.129Z,12.10
2017-05-23T03:27:23.850Z,12.20
2017-05-23T03:29:52.904Z,12.10
2017-05-23T03:32:23.137Z,12.10
2017-05-23T03:34:52.117Z,12.00
2017-05-23T03:37:21.877Z,12.10
2017-05-23T03:39:51.588Z,12.10
2017-05-23T03:42:35.913Z,12.20
2017-05-23T03:46:24.750Z,12.20
2017-05-23T03:48:53.725Z,12.10
2017-05-23T03:51:22.713Z,12.20
2017-05-23T03:53:51.706Z,12.20
2017-05-23T03:56:21.554Z,12.10
2017-05-23T03:58:51.589Z,12.20
2017-05-23T04:01:21.396Z,12.20
2017-05-23T04:03:51.151Z,12.30
2017-05-23T04:06:20.980Z,12.30
2017-05-23T04:08:50.725Z,12.30
2017-05-23T04:11:20.573Z,12.30
2017-05-23T04:13:50.857Z,12.30
2017-05-23T04:16:19.883Z,12.20
2017-05-23T04:18:49.609Z,12.30
2017-05-23T04:21:19.354Z,12.40
2017-05-23T04:23:49.149Z,12.50
2017-05-23T04:26:18.936Z,12.50
2017-05-23T04:28:47.960Z,12.50
2017-05-23T04:31:17.735Z,12.60
2017-05-23T04:33:48.294Z,12.70
2017-05-23T04:36:18.087Z,12.70
2017-05-23T04:38:47.853Z,12.70
2017-05-23T04:41:17.665Z,12.70
2017-05-23T04:43:47.388Z,12.60
2017-05-23T04:46:17.157Z,12.70
2017-05-23T04:48:46.906Z,12.60
2017-05-23T04:51:16.633Z,12.60
2017-05-23T04:53:46.377Z,12.70
2017-05-23T04:56:16.134Z,12.70
2017-05-23T04:58:45.888Z,12.80
2017-05-23T05:01:16.114Z,12.90
2017-05-23T05:03:46.063Z,13.10
2017-05-23T05:06:15.822Z,13.20
2017-05-23T05:08:45.590Z,13.20
2017-05-23T05:11:15.342Z,13.30
2017-05-23T05:13:45.106Z,13.90
2017-05-23T05:16:14.869Z,14.40
2017-05-23T05:18:43.890Z,14.30
2017-05-23T05:21:13.281Z,14.70
2017-05-23T05:23:43.030Z,15.00
2017-05-23T05:26:12.816Z,15.10
2017-05-23T05:28:42.589Z,15.20
2017-05-23T05:31:12.496Z,15.30
2017-05-23T05:33:43.207Z,15.30
2017-05-23T05:36:13.365Z,15.50
2017-05-23T05:38:43.175Z,15.60
2017-05-23T05:41:13.015Z,15.80
2017-05-23T05:43:41.997Z,15.70
2017-05-23T05:46:11.906Z,15.80
2017-05-23T05:48:41.878Z,15.80
2017-05-23T05:51:11.793Z,15.80
2017-05-23T05:53:41.537Z,15.90
2017-05-23T05:56:11.402Z,16.10
2017-05-23T05:58:41.218Z,16.70
2017-05-23T06:01:11.023Z,17.00
2017-05-23T06:03:40.801Z,17.20
2017-05-23T06:06:10.629Z,17.40
2017-05-23T06:08:40.447Z,17.60
2017-05-23T06:11:10.274Z,17.70
2017-05-23T06:13:44.197Z,17.80
2017-05-23T06:16:13.998Z,18.20
2017-05-23T06:18:44.963Z,18.60
2017-05-23T06:21:14.734Z,18.90
2017-05-23T06:23:44.526Z,19.80
2017-05-23T06:26:14.302Z,20.70
2017-05-23T06:28:44.565Z,21.30
2017-05-23T06:31:14.375Z,21.30
2017-05-23T06:33:44.116Z,21.40
2017-05-23T06:36:14.914Z,21.20
2017-05-23T06:38:44.727Z,21.90
2017-05-23T06:41:14.518Z,22.40
2017-05-23T06:43:44.348Z,22.50
2017-05-23T06:46:14.204Z,22.70
2017-05-23T06:48:43.955Z,23.20
2017-05-23T06:51:13.730Z,22.30
2017-05-23T06:53:43.534Z,21.80
2017-05-23T06:56:13.326Z,22.00
2017-05-23T06:58:43.044Z,22.10
2017-05-23T07:01:12.892Z,22.40
2017-05-23T07:03:42.677Z,22.80
2017-05-23T07:06:12.463Z,23.30
2017-05-23T07:08:42.241Z,24.10
2017-05-23T07:11:12.431Z,24.40
2017-05-23T07:13:42.216Z,24.70
2017-05-23T07:16:12.029Z,25.40
2017-05-23T07:18:41.847Z,25.70
2017-05-23T07:21:11.684Z,26.20
2017-05-23T07:23:41.493Z,26.60
2017-05-23T07:26:11.379Z,26.40
2017-05-23T07:28:41.537Z,25.90
2017-05-23T07:31:11.433Z,26.00
2017-05-23T07:33:41.288Z,25.80
2017-05-23T07:36:11.131Z,25.40
2017-05-23T07:38:40.763Z,25.30
2017-05-23T07:41:10.647Z,24.60
2017-05-23T07:43:40.492Z,24.20
2017-05-23T07:46:10.442Z,24.10
2017-05-23T07:48:40.408Z,24.20
2017-05-23T07:51:16.751Z,24.20
2017-05-23T07:53:46.606Z,24.40
2017-05-23T07:56:16.460Z,25.10
2017-05-23T07:58:46.337Z,25.50
2017-05-23T08:01:16.221Z,25.40
2017-05-23T08:03:46.248Z,25.80
2017-05-23T08:06:16.192Z,26.20
2017-05-23T08:08:46.247Z,26.70
2017-05-23T08:11:16.086Z,27.20
2017-05-23T08:13:45.914Z,27.50
2017-05-23T08:16:16.524Z,27.20
2017-05-23T08:18:46.466Z,27.50
2017-05-23T08:21:16.397Z,27.90
2017-05-23T08:23:46.178Z,28.20
2017-05-23T08:26:15.990Z,27.70
2017-05-23T08:28:45.828Z,27.80
2017-05-23T08:31:15.667Z,28.40
2017-05-23T08:33:45.554Z,28.70
2017-05-23T08:36:15.131Z,28.70
2017-05-23T08:38:45.956Z,28.50
2017-05-23T08:41:15.741Z,29.30
2017-05-23T08:43:45.609Z,29.90
2017-05-23T08:46:15.512Z,30.50
2017-05-23T08:48:45.773Z,30.50
2017-05-23T08:51:15.656Z,29.70
2017-05-23T08:53:45.474Z,27.10
2017-05-23T08:56:15.389Z,25.70
2017-05-23T08:58:45.230Z,26.70
2017-05-23T09:01:15.352Z,27.90
2017-05-23T09:03:45.208Z,29.00
2017-05-23T09:06:15.504Z,29.30
2017-05-23T09:08:45.354Z,28.90
2017-05-23T09:11:15.154Z,30.10
2017-05-23T09:13:44.176Z,30.00
2017-05-23T09:16:13.993Z,31.30
2017-05-23T09:18:43.877Z,31.70
2017-05-23T09:21:13.712Z,32.40
2017-05-23T09:23:44.058Z,33.20
2017-05-23T09:26:18.049Z,32.60
2017-05-23T09:28:47.854Z,31.80
2017-05-23T09:31:17.743Z,30.90
2017-05-23T09:33:47.665Z,30.50
2017-05-23T09:36:17.442Z,30.20
2017-05-23T09:38:47.296Z,30.30
2017-05-23T09:41:17.126Z,31.70
2017-05-23T09:43:46.952Z,32.90
2017-05-23T09:46:16.845Z,33.60
2017-05-23T09:48:46.658Z,33.90
2017-05-23T09:51:16.468Z,33.10
2017-05-23T09:53:46.256Z,33.10
2017-05-23T09:56:16.105Z,33.90
2017-05-23T09:58:46.561Z,33.70
2017-05-23T10:01:16.401Z,34.10
2017-05-23T10:03:46.345Z,34.60
2017-05-23T10:06:16.180Z,35.10
2017-05-23T10:08:46.088Z,34.90
2017-05-23T10:11:16.321Z,34.30
2017-05-23T10:13:47.169Z,34.20
2017-05-23T10:16:17.646Z,34.10
2017-05-23T10:18:47.618Z,34.40
2017-05-23T10:21:17.454Z,34.40
2017-05-23T10:23:47.306Z,34.00
2017-05-23T10:26:17.080Z,34.10
2017-05-23T10:28:46.892Z,34.20
2017-05-23T10:31:16.751Z,33.30
2017-05-23T10:33:49.449Z,31.80
2017-05-23T10:36:19.318Z,31.10
2017-05-23T10:38:49.349Z,31.00
2017-05-23T10:41:20.155Z,30.70
2017-05-23T10:43:51.183Z,30.00
2017-05-23T10:46:21.506Z,30.90
2017-05-23T10:48:51.413Z,31.60
2017-05-23T10:51:21.262Z,32.30
2017-05-23T10:53:51.166Z,32.10
2017-05-23T10:56:21.068Z,31.50
2017-05-23T10:58:52.100Z,30.60
2017-05-23T11:01:22.099Z,29.90
2017-05-23T11:03:52.859Z,29.30
2017-05-23T11:06:22.819Z,28.40
2017-05-23T11:08:52.953Z,27.80
2017-05-23T11:11:22.249Z,27.70
2017-05-23T11:13:52.139Z,27.30
2017-05-23T11:16:22.121Z,27.50
2017-05-23T11:18:52.310Z,28.50
2017-05-23T11:21:22.652Z,29.10
2017-05-23T11:23:54.344Z,29.20
2017-05-23T11:26:24.259Z,29.40
2017-05-23T11:28:54.736Z,29.60
2017-05-23T11:31:24.507Z,29.90
2017-05-23T11:33:55.366Z,30.00
2017-05-23T11:36:26.794Z,30.20
2017-05-23T11:38:57.415Z,30.10
2017-05-23T11:41:27.259Z,29.90
2017-05-23T11:43:57.084Z,30.00
2017-05-23T11:46:26.962Z,29.80
2017-05-23T11:48:56.815Z,29.60
2017-05-23T11:51:57.981Z,29.90
2017-05-23T11:54:27.958Z,30.20
2017-05-23T11:57:00.611Z,29.90
2017-05-23T11:59:30.602Z,29.40
2017-05-23T12:02:00.395Z,28.70
2017-05-23T12:04:30.295Z,28.50
2017-05-23T12:07:00.246Z,28.70
2017-05-23T12:09:30.396Z,29.10
2017-05-23T12:12:00.969Z,29.30
2017-05-23T12:14:32.057Z,28.90
2017-05-23T12:17:01.947Z,28.70
2017-05-23T12:19:31.994Z,28.50
2017-05-23T12:22:01.933Z,28.30
2017-05-23T12:24:31.893Z,28.50
2017-05-23T12:27:01.806Z,28.60
2017-05-23T12:29:32.174Z,28.50
2017-05-23T12:32:02.079Z,28.60
2017-05-23T12:34:32.046Z,28.50
2017-05-23T12:37:02.841Z,28.60
2017-05-23T12:39:33.679Z,28.80
2017-05-23T12:42:04.714Z,28.70
2017-05-23T12:44:34.529Z,28.70
2017-05-23T12:47:05.285Z,28.60
2017-05-23T12:49:35.243Z,28.60
2017-05-23T12:52:06.092Z,28.60
2017-05-23T12:54:35.952Z,28.50
2017-05-23T12:57:05.928Z,28.40
2017-05-23T12:59:36.648Z,28.30
2017-05-23T13:02:06.464Z,28.30
2017-05-23T13:04:40.636Z,28.30
2017-05-23T13:07:10.553Z,28.30
2017-05-23T13:09:40.480Z,28.20
2017-05-23T13:12:10.426Z,28.20
2017-05-23T13:14:40.265Z,28.30
2017-05-23T13:17:11.266Z,28.30
2017-05-23T13:19:41.204Z,28.00
2017-05-23T13:22:11.284Z,27.80
2017-05-23T13:24:41.595Z,27.80
2017-05-23T13:27:11.973Z,27.60
2017-05-23T13:29:42.917Z,27.50
2017-05-23T13:32:43.384Z,27.40
2017-05-23T13:35:13.856Z,27.20
2017-05-23T13:37:43.632Z,27.20
2017-05-23T13:40:13.491Z,27.20
2017-05-23T13:42:44.345Z,27.20
2017-05-23T13:45:14.876Z,27.30
2017-05-23T13:47:44.769Z,27.20
2017-05-23T13:50:15.426Z,27.20
2017-05-23T13:52:46.226Z,27.20
2017-05-23T13:55:16.047Z,27.20
2017-05-23T13:57:47.750Z,27.20
2017-05-23T14:00:17.535Z,27.30
2017-05-23T14:02:48.380Z,27.40
2017-05-23T14:05:18.357Z,27.30
2017-05-23T14:07:48.556Z,27.20
2017-05-23T14:10:18.376Z,27.20
2017-05-23T14:12:48.298Z,27.20
2017-05-23T14:15:18.873Z,27.20
2017-05-23T14:17:49.095Z,27.20
2017-05-23T14:20:18.924Z,27.20
2017-05-23T14:22:48.809Z,27.30
2017-05-23T14:25:18.691Z,27.40
2017-05-23T14:27:49.279Z,27.60
2017-05-23T14:30:19.289Z,27.50
2017-05-23T14:32:49.769Z,27.30
2017-05-23T14:35:20.485Z,27.10
2017-05-23T14:37:50.412Z,27.00
2017-05-23T14:40:20.692Z,26.90
2017-05-23T14:42:51.714Z,27.00
2017-05-23T14:45:22.661Z,27.20
2017-05-23T14:47:53.685Z,27.10
2017-05-23T14:50:23.946Z,27.10
2017-05-23T14:52:54.552Z,26.90
2017-05-23T14:55:25.373Z,26.60
2017-05-23T14:57:56.946Z,26.30
2017-05-23T15:00:27.507Z,26.00
2017-05-23T15:02:57.498Z,25.90
2017-05-23T15:05:27.895Z,25.80
2017-05-23T15:08:00.179Z,25.70
2017-05-23T15:10:31.323Z,25.50
2017-05-23T15:13:01.369Z,25.40
2017-05-23T15:15:31.313Z,25.30
2017-05-23T15:18:01.984Z,25.40
2017-05-23T15:20:32.830Z,25.30
2017-05-23T15:23:02.669Z,25.20
2017-05-23T15:25:32.560Z,25.10
2017-05-23T15:28:02.483Z,24.90
2017-05-23T15:30:32.450Z,24.80
2017-05-23T15:33:02.410Z,24.90
2017-05-23T15:35:33.405Z,24.80
2017-05-23T15:38:04.282Z,24.80
2017-05-23T15:40:35.017Z,24.70
2017-05-23T15:43:05.695Z,24.80
2017-05-23T15:45:36.233Z,24.80
2017-05-23T15:48:06.038Z,24.80
2017-05-23T15:50:36.493Z,24.70
2017-05-23T15:53:06.335Z,24.60
2017-05-23T15:55:36.269Z,24.50
2017-05-23T15:58:06.959Z,24.40
2017-05-23T16:00:38.245Z,24.40
2017-05-23T16:03:08.090Z,24.20
2017-05-23T16:05:37.936Z,24.20
2017-05-23T16:08:07.887Z,24.00
2017-05-23T16:10:38.892Z,23.90
2017-05-23T16:13:08.982Z,23.80
2017-05-23T16:15:38.834Z,23.70
2017-05-23T16:18:11.548Z,23.50
2017-05-23T16:21:44.432Z,23.40
2017-05-23T16:24:14.789Z,23.30
2017-05-23T16:26:45.841Z,23.20
2017-05-23T16:29:15.868Z,23.20
2017-05-23T16:31:45.830Z,23.20
2017-05-23T16:34:15.797Z,23.10
2017-05-23T16:36:47.010Z,23.10
2017-05-23T16:39:19.268Z,23.00
2017-05-23T16:41:49.068Z,22.80
2017-05-23T16:44:20.471Z,22.80
2017-05-23T16:46:51.219Z,22.70
2017-05-23T16:49:21.079Z,22.70
2017-05-23T16:51:51.673Z,22.60
2017-05-23T16:57:21.719Z,22.40
2017-05-23T16:59:54.105Z,22.30
2017-05-23T17:02:25.631Z,22.20
2017-05-23T17:04:56.317Z,22.10
2017-05-23T17:07:27.615Z,22.00
2017-05-23T17:09:59.445Z,22.00
2017-05-23T17:12:31.716Z,21.90
2017-05-23T17:15:02.012Z,21.80
2017-05-23T17:17:35.567Z,21.80
2017-05-23T17:20:12.076Z,21.80
2017-05-23T17:22:51.517Z,21.80
2017-05-23T17:25:24.008Z,21.70
2017-05-23T17:27:58.282Z,21.60
2017-05-23T17:30:32.985Z,21.60
2017-05-23T17:33:05.914Z,21.60
2017-05-23T17:35:41.987Z,21.60
2017-05-23T17:38:22.779Z,21.50
2017-05-23T17:40:53.289Z,21.50
2017-05-23T17:43:30.099Z,21.50
2017-05-23T17:48:45.527Z,21.30
2017-05-23T17:51:18.863Z,21.30
2017-05-23T17:53:52.697Z,21.30
2017-05-23T17:56:27.253Z,21.20
2017-05-23T17:58:57.363Z,21.10
2017-05-23T18:01:27.850Z,21.10
2017-05-23T18:03:59.378Z,21.00
2017-05-23T18:06:32.392Z,20.90
2017-05-23T18:09:04.735Z,20.80
2017-05-23T18:11:37.775Z,20.50
2017-05-23T18:14:14.480Z,20.50
2017-05-23T18:16:45.681Z,20.40
2017-05-23T18:19:17.573Z,20.30
2017-05-23T18:22:20.624Z,20.30
2017-05-23T18:24:56.425Z,20.20
2017-05-23T18:27:31.200Z,20.10
2017-05-23T18:30:42.240Z,20.00
2017-05-23T18:33:14.967Z,20.00
2017-05-23T18:35:51.107Z,19.90
2017-05-23T18:38:22.980Z,19.80
2017-05-23T18:41:00.004Z,19.80
2017-05-23T18:43:31.479Z,19.80
2017-05-23T18:46:07.416Z,19.60
2017-05-23T18:48:50.236Z,19.50
2017-05-23T18:51:25.611Z,19.50
2017-05-23T18:54:00.278Z,19.40
2017-05-23T18:56:32.931Z,19.40
2017-05-23T18:59:12.894Z,19.30
2017-05-23T19:01:45.526Z,19.20
2017-05-23T19:04:17.410Z,19.20
2017-05-23T19:06:48.592Z,19.10
2017-05-23T19:09:27.005Z,19.10
2017-05-23T19:11:59.782Z,19.10
2017-05-23T19:14:38.042Z,19.00
2017-05-23T19:17:09.130Z,19.00
2017-05-23T19:19:42.157Z,19.00
2017-05-23T19:22:15.567Z,18.90
2017-05-23T19:24:49.510Z,18.60
2017-05-23T19:27:20.854Z,18.60
2017-05-23T19:29:51.323Z,18.50
2017-05-23T19:32:26.058Z,18.40
2017-05-23T19:34:59.008Z,18.40
2017-05-23T19:37:30.908Z,18.20
2017-05-23T19:42:43.928Z,18.20
2017-05-23T19:45:22.903Z,18.10
2017-05-23T19:47:56.459Z,18.10
2017-05-23T19:50:27.295Z,18.00
2017-05-23T19:52:57.264Z,17.90
2017-05-23T19:55:31.770Z,17.70
2017-05-23T19:58:02.579Z,17.60
2017-05-23T20:00:36.806Z,17.50
2017-05-23T20:03:09.913Z,17.60
2017-05-23T20:05:43.480Z,17.40
2017-05-23T20:08:15.603Z,17.30
2017-05-23T20:10:48.297Z,17.20
2017-05-23T20:13:24.700Z,17.00
2017-05-23T20:16:02.429Z,16.90
2017-05-23T20:18:32.741Z,16.90
2017-05-23T20:21:03.089Z,16.70
2017-05-23T20:23:34.762Z,16.60
2017-05-23T20:26:08.824Z,16.50
2017-05-23T20:28:38.840Z,16.40
2017-05-23T20:31:11.375Z,16.30
2017-05-23T20:33:41.364Z,16.20
2017-05-23T20:36:15.585Z,16.10
2017-05-23T20:38:47.147Z,16.10
2017-05-23T20:41:18.230Z,16.00
2017-05-23T20:43:50.485Z,15.90
2017-05-23T20:46:21.101Z,15.90
2017-05-23T20:48:51.885Z,15.80
2017-05-23T20:51:28.376Z,15.70
2017-05-23T20:53:59.411Z,15.70
2017-05-23T20:56:59.631Z,15.50
2017-05-23T20:59:30.454Z,15.50
2017-05-23T21:02:01.150Z,15.40
2017-05-23T21:04:30.844Z,15.30
2017-05-23T21:07:00.977Z,15.10
2017-05-23T21:09:32.530Z,15.20
2017-05-23T21:12:02.815Z,15.10
2017-05-23T21:14:33.357Z,14.90
2017-05-23T21:17:03.215Z,15.00
2017-05-23T21:19:33.681Z,14.90
2017-05-23T21:22:03.735Z,14.80
2017-05-23T21:25:52.776Z,14.80
2017-05-23T21:28:24.016Z,14.80
2017-05-23T21:30:54.524Z,14.70
2017-05-23T21:33:54.441Z,14.70
2017-05-23T21:36:24.875Z,14.50
2017-05-23T21:38:54.702Z,14.60
2017-05-23T21:41:24.617Z,14.50
2017-05-23T21:43:53.850Z,14.50
2017-05-23T21:46:24.476Z,14.50
2017-05-23T21:50:15.532Z,14.50
2017-05-23T21:52:47.357Z,14.40
2017-05-23T21:55:18.346Z,14.40
2017-05-23T21:57:48.111Z,14.30
2017-05-23T22:00:22.806Z,14.20
2017-05-23T22:02:52.618Z,14.20
2017-05-23T22:05:22.798Z,14.20
2017-05-23T22:07:54.029Z,14.10
2017-05-23T22:10:23.981Z,14.10
2017-05-23T22:12:55.489Z,14.10
2017-05-23T22:15:25.579Z,14.00
2017-05-23T22:17:55.370Z,13.90
2017-05-23T22:20:25.144Z,13.80
2017-05-23T22:22:54.940Z,13.80
2017-05-23T22:25:24.841Z,13.70
2017-05-23T22:27:54.664Z,13.70
2017-05-23T22:30:25.182Z,13.70
2017-05-23T22:32:55.005Z,13.70
2017-05-23T22:35:25.617Z,13.60
2017-05-23T22:38:10.973Z,13.60
2017-05-23T22:40:41.260Z,13.60
2017-05-23T22:44:30.455Z,13.50
2017-05-23T22:47:00.210Z,13.40
2017-05-23T22:49:30.055Z,13.40
2017-05-23T22:52:00.496Z,13.20
2017-05-23T22:54:30.282Z,13.20
2017-05-23T22:57:00.055Z,13.20
2017-05-23T22:59:29.904Z,13.10
2017-05-23T23:01:59.691Z,13.10
2017-05-23T23:04:29.495Z,13.10
2017-05-23T23:06:59.314Z,13.10
2017-05-23T23:09:28.355Z,13.00
2017-05-23T23:11:58.166Z,13.00
2017-05-23T23:14:28.022Z,13.00
2017-05-23T23:16:57.810Z,12.90
2017-05-23T23:19:27.648Z,12.90
2017-05-23T23:21:57.782Z,12.80
2017-05-23T23:24:26.829Z,12.70
2017-05-23T23:26:55.849Z,12.80
2017-05-23T23:29:26.517Z,12.70
2017-05-23T23:31:55.545Z,12.60
2017-05-23T23:34:24.510Z,12.70
2017-05-23T23:36:54.264Z,12.60
2017-05-23T23:39:24.080Z,12.50
2017-05-23T23:44:34.014Z,12.40
2017-05-23T23:47:03.093Z,12.40
2017-05-23T23:49:32.045Z,12.30
2017-05-23T23:52:01.860Z,12.20
2017-05-23T23:55:34.387Z,12.20
2017-05-23T23:58:04.133Z,12.20
